createdAt,value
2023-11-25T08:30:02.718Z,9.762786
2023-11-25T08:31:02.713Z,9.762786
2023-11-25T08:32:02.893Z,9.762786
2023-11-25T08:33:02.715Z,9.762786
2023-11-25T08:34:02.664Z,9.762786
2023-11-25T08:35:02.665Z,9.762786
2023-11-25T08:36:02.649Z,9.763732
2023-11-25T08:37:02.674Z,9.763732
2023-11-25T08:38:02.629Z,9.763732
2023-11-25T08:39:02.680Z,9.763732
2023-11-25T08:40:02.624Z,9.763732
2023-11-25T08:41:02.734Z,9.763732
2023-11-25T08:42:02.575Z,9.763732
2023-11-25T08:43:02.618Z,9.763732
2023-11-25T08:44:02.612Z,9.763732
2023-11-25T08:45:02.555Z,9.763732
2023-11-25T08:46:02.613Z,9.763732
2023-11-25T08:47:03.621Z,9.763732
2023-11-25T08:48:02.582Z,9.763732
2023-11-25T08:49:02.521Z,9.763732
2023-11-25T08:50:02.631Z,9.763732
2023-11-25T08:51:04.173Z,9.763732
2023-11-25T08:52:02.548Z,9.763732
2023-11-25T08:53:02.524Z,9.763732
2023-11-25T08:54:02.592Z,9.763732
2023-11-25T08:55:02.499Z,9.763732
2023-11-25T08:56:02.569Z,9.763732
2023-11-25T08:57:02.528Z,9.763732
2023-11-25T08:58:02.416Z,9.763732
2023-11-25T08:59:06.645Z,9.763732
2023-11-25T09:00:03.469Z,9.763732
2023-11-25T09:01:02.428Z,9.763732
2023-11-25T09:02:02.405Z,9.763732
2023-11-25T09:03:02.482Z,9.763732
2023-11-25T09:04:02.442Z,9.763732
2023-11-25T09:05:09.275Z,9.763732
2023-11-25T09:06:04.371Z,9.763732
2023-11-25T09:07:02.372Z,9.763732
2023-11-25T09:08:02.507Z,9.763732
2023-11-25T09:09:02.361Z,9.763732
2023-11-25T09:10:02.355Z,9.763732
2023-11-25T09:11:02.437Z,9.763732
2023-11-25T09:12:02.307Z,9.763732
2023-11-25T09:13:02.269Z,9.763732
2023-11-25T09:14:02.339Z,9.763732
2023-11-25T09:15:02.265Z,9.763732
2023-11-25T09:16:02.300Z,9.763732
2023-11-25T09:17:02.275Z,9.763732
2023-11-25T09:18:02.284Z,9.763732
2023-11-25T09:19:02.204Z,9.763732
2023-11-25T09:20:02.322Z,9.763732
2023-11-25T09:21:02.210Z,9.763732
2023-11-25T09:22:02.194Z,9.763732
2023-11-25T09:23:02.189Z,9.763732
2023-11-25T09:24:02.178Z,9.763732
2023-11-25T09:25:02.136Z,9.763732
2023-11-25T09:26:02.150Z,9.763732
2023-11-25T09:27:02.159Z,9.762568
2023-11-25T09:28:02.113Z,9.762624
2023-11-25T09:29:02.176Z,9.761935
2023-11-25T09:30:02.109Z,9.763766
2023-11-25T09:31:02.081Z,9.763103
2023-11-25T09:32:02.118Z,9.763075
2023-11-25T09:33:02.142Z,9.763008
2023-11-25T09:34:02.128Z,9.762937
2023-11-25T09:35:02.068Z,9.762981
2023-11-25T09:36:02.041Z,9.763329
2023-11-25T09:37:02.073Z,9.762808
2023-11-25T09:38:02.118Z,9.762508
2023-11-25T09:39:02.010Z,9.763175
2023-11-25T09:40:01.988Z,9.762460
2023-11-25T09:41:02.069Z,9.762556
2023-11-25T09:42:01.982Z,9.762641
2023-11-25T09:43:01.948Z,9.762329
2023-11-25T09:44:01.953Z,9.762908
2023-11-25T09:45:01.944Z,9.762574
2023-11-25T09:46:02.010Z,9.762916
2023-11-25T09:47:02.007Z,9.762547
2023-11-25T09:48:01.931Z,9.762487
2023-11-25T09:49:01.901Z,9.762994
2023-11-25T09:50:01.919Z,9.762686
2023-11-25T09:51:01.894Z,9.762906
2023-11-25T09:52:01.958Z,9.763284
2023-11-25T09:53:02.604Z,9.777564
2023-11-25T09:54:01.902Z,9.777564
2023-11-25T09:55:01.956Z,9.777564
2023-11-25T09:56:01.909Z,9.777564
2023-11-25T09:57:01.836Z,9.777564
2023-11-25T09:58:01.827Z,9.777564
2023-11-25T09:59:01.819Z,9.777564
2023-11-25T10:00:01.815Z,9.777564
2023-11-25T10:01:01.799Z,9.777564
2023-11-25T10:02:01.859Z,9.777564
2023-11-25T10:03:01.915Z,9.777564
2023-11-25T10:04:01.793Z,9.777564
2023-11-25T10:05:01.761Z,9.777564
2023-11-25T10:06:01.766Z,9.777564
2023-11-25T10:07:01.737Z,9.777564
2023-11-25T10:08:01.732Z,9.777564
2023-11-25T10:09:01.701Z,9.777564
2023-11-25T10:10:01.672Z,9.777564
2023-11-25T10:11:01.694Z,9.777564
2023-11-25T10:12:01.652Z,9.777564
2023-11-25T10:13:01.705Z,9.777564
2023-11-25T10:14:01.675Z,9.777564
2023-11-25T10:15:01.679Z,9.777564
2023-11-25T10:16:01.769Z,9.777564
2023-11-25T10:17:01.708Z,9.777564
2023-11-25T10:18:01.634Z,9.777564
2023-11-25T10:19:01.733Z,9.777564
2023-11-25T10:20:01.610Z,9.777564
2023-11-25T10:21:01.620Z,9.777564
2023-11-25T10:22:01.561Z,9.777564
2023-11-25T10:23:01.588Z,9.777564
2023-11-25T10:24:01.573Z,9.777564
2023-11-25T10:25:01.572Z,9.777564
2023-11-25T10:26:01.499Z,9.777564
2023-11-25T10:27:01.533Z,9.777564
2023-11-25T10:28:01.563Z,9.777564
2023-11-25T10:29:01.529Z,9.777564
2023-11-25T10:30:01.516Z,9.777564
2023-11-25T10:31:01.475Z,9.777564
2023-11-25T10:32:01.448Z,9.777564
2023-11-25T10:33:01.502Z,9.777564
2023-11-25T10:34:01.528Z,9.777564
2023-11-25T10:35:01.477Z,9.777564
2023-11-25T10:36:01.433Z,9.777564
2023-11-25T10:37:01.482Z,9.777564
2023-11-25T10:38:01.561Z,9.777564
2023-11-25T10:39:01.440Z,9.777564
2023-11-25T10:40:01.466Z,9.777564
2023-11-25T10:41:01.435Z,9.777564
2023-11-25T10:42:01.364Z,9.777564
2023-11-25T10:43:01.381Z,9.777564
2023-11-25T10:44:01.401Z,9.777564
2023-11-25T10:45:01.324Z,9.777564
2023-11-25T10:46:01.397Z,9.777564
2023-11-25T10:47:01.401Z,9.777564
2023-11-25T10:48:01.387Z,9.777564
2023-11-25T10:49:01.301Z,9.777564
2023-11-25T10:50:01.321Z,9.777564
2023-11-25T10:51:01.287Z,9.777564
2023-11-25T10:52:01.268Z,9.777564
2023-11-25T10:53:01.343Z,9.777564
2023-11-25T10:54:01.265Z,9.777564
2023-11-25T10:55:01.259Z,9.777564
2023-11-25T10:56:01.573Z,9.777564
2023-11-25T10:57:01.258Z,9.777564
2023-11-25T10:58:01.239Z,9.777564
2023-11-25T10:59:01.330Z,9.777564
2023-11-25T11:00:01.204Z,9.777564
2023-11-25T11:01:01.303Z,9.777564
2023-11-25T11:02:01.389Z,9.777564
2023-11-25T11:03:01.225Z,9.777564
2023-11-25T11:04:01.183Z,9.777564
2023-11-25T11:05:01.139Z,9.767666
2023-11-25T11:06:01.144Z,9.763298
2023-11-25T11:07:01.747Z,9.762949
2023-11-25T11:08:01.125Z,9.762726
2023-11-25T11:09:01.109Z,9.762727
2023-11-25T11:10:01.102Z,9.762983
2023-11-25T11:11:01.159Z,9.762928
2023-11-25T11:12:01.091Z,9.762928
2023-11-25T11:13:01.063Z,9.762843
2023-11-25T11:14:01.070Z,9.762886
2023-11-25T11:15:01.039Z,9.762807
2023-11-25T11:16:01.042Z,9.762856
2023-11-25T11:17:01.042Z,9.762850
2023-11-25T11:18:01.102Z,9.762939
2023-11-25T11:19:01.109Z,9.762839
2023-11-25T11:20:01.051Z,9.762760
2023-11-25T11:21:01.041Z,9.763365
2023-11-25T11:22:00.979Z,9.762800
2023-11-25T11:23:00.977Z,9.762597
2023-11-25T11:24:00.961Z,9.762526
2023-11-25T11:25:00.989Z,9.762505
2023-11-25T11:26:00.989Z,9.762224
2023-11-25T11:27:00.937Z,9.762428
2023-11-25T11:28:00.922Z,9.762419
2023-11-25T11:29:00.915Z,9.762528
2023-11-25T11:30:00.917Z,9.762656
2023-11-25T11:31:00.890Z,9.762593
2023-11-25T11:32:01.068Z,9.762649
2023-11-25T11:33:00.924Z,9.762695
2023-11-25T11:34:00.866Z,9.762761
2023-11-25T11:35:00.915Z,9.762591
2023-11-25T11:36:00.870Z,9.762706
2023-11-25T11:37:00.829Z,9.762603
2023-11-25T11:38:00.863Z,9.762478
2023-11-25T11:39:00.860Z,9.762560
2023-11-25T11:40:00.799Z,9.762529
2023-11-25T11:41:00.887Z,9.762523
2023-11-25T11:42:00.792Z,9.762575
2023-11-25T11:43:00.808Z,9.762547
2023-11-25T11:44:00.818Z,9.762498
2023-11-25T11:45:00.833Z,9.762461
2023-11-25T11:46:00.768Z,9.762609
2023-11-25T11:47:00.769Z,9.762617
2023-11-25T11:48:00.773Z,9.762738
2023-11-25T11:49:00.739Z,9.763020
2023-11-25T11:50:00.836Z,9.763688
2023-11-25T11:51:00.699Z,9.763281
2023-11-25T11:52:00.681Z,9.762742
2023-11-25T11:53:00.928Z,9.762591
2023-11-25T11:54:00.679Z,9.762907
2023-11-25T11:55:00.655Z,9.762681
2023-11-25T11:56:00.721Z,9.762648
2023-11-25T11:57:00.665Z,9.762642
2023-11-25T11:58:00.638Z,9.762768
2023-11-25T11:59:00.698Z,9.763038
2023-11-25T12:00:00.585Z,9.762740
2023-11-25T12:01:00.580Z,9.762705
2023-11-25T12:02:00.605Z,9.762712
2023-11-25T12:03:00.621Z,9.762712
2023-11-25T12:04:00.617Z,9.762712
2023-11-25T12:05:00.907Z,9.762712
2023-11-25T12:06:00.535Z,9.762693
2023-11-25T12:07:00.550Z,9.762693
2023-11-25T12:08:00.556Z,9.763015
2023-11-25T12:09:00.535Z,9.762877
2023-11-25T12:10:00.578Z,9.762928
2023-11-25T12:11:00.531Z,9.762817
2023-11-25T12:12:00.517Z,9.762697
2023-11-25T12:13:00.504Z,9.762597
2023-11-25T12:14:00.534Z,9.762750
2023-11-25T12:15:00.454Z,9.763189
2023-11-25T12:16:00.877Z,9.763189
2023-11-25T12:17:00.521Z,9.763189
2023-11-25T12:18:01.465Z,9.760451
2023-11-25T12:19:00.403Z,9.781311
2023-11-25T12:20:00.503Z,9.781311
2023-11-25T12:21:00.420Z,9.781311
2023-11-25T12:22:00.419Z,9.781311
2023-11-25T12:23:00.393Z,9.781311
2023-11-25T12:24:00.373Z,9.781311
2023-11-25T12:25:00.331Z,9.781311
2023-11-25T12:26:00.371Z,9.781311
2023-11-25T12:27:00.340Z,9.781311
2023-11-25T12:28:00.313Z,9.781311
2023-11-25T12:29:00.332Z,9.781311
2023-11-25T12:30:00.316Z,9.781311
2023-11-25T12:31:00.296Z,9.781311
2023-11-25T12:32:00.381Z,9.781311
2023-11-25T12:33:00.301Z,9.781311
2023-11-25T12:34:00.253Z,9.781311
2023-11-25T12:35:00.340Z,9.781311
2023-11-25T12:36:00.256Z,9.781311
2023-11-25T12:37:00.220Z,9.781311
2023-11-25T12:38:08.081Z,9.781311
2023-11-25T12:39:02.207Z,9.781311
2023-11-25T12:40:00.226Z,9.781311
2023-11-25T12:41:01.204Z,9.781311
2023-11-25T12:42:00.199Z,9.781311
2023-11-25T12:43:00.151Z,9.781311
2023-11-25T12:44:00.237Z,9.781311
2023-11-25T12:45:00.198Z,9.781311
2023-11-25T12:46:00.206Z,9.781311
2023-11-25T12:47:00.311Z,9.781311
2023-11-25T12:48:00.150Z,9.781311
2023-11-25T12:49:05.993Z,9.781311
2023-11-25T12:50:01.171Z,9.781311
2023-11-25T12:51:00.118Z,9.781311
2023-11-25T12:52:00.110Z,9.781311
2023-11-25T12:53:00.105Z,9.781311
2023-11-25T12:54:00.065Z,9.781311
2023-11-25T12:55:00.018Z,9.781311
2023-11-25T12:56:00.115Z,9.781311
2023-11-25T12:56:59.988Z,9.781311
2023-11-25T12:58:00.024Z,9.781311
2023-11-25T12:59:00.073Z,9.781311
2023-11-25T12:59:59.998Z,9.781311
2023-11-25T13:01:00.008Z,9.781311
2023-11-25T13:02:00.047Z,9.781311
2023-11-25T13:03:00.199Z,9.781311
2023-11-25T13:04:00.008Z,9.781311
2023-11-25T13:05:00.050Z,9.781311
2023-11-25T13:05:59.952Z,9.781311
2023-11-25T13:06:59.928Z,9.781311
2023-11-25T13:08:00.081Z,9.781311
2023-11-25T13:08:59.922Z,9.781311
2023-11-25T13:10:00.101Z,9.781311
2023-11-25T13:10:59.897Z,9.781311
2023-11-25T13:11:59.969Z,9.781311
2023-11-25T13:13:09.967Z,9.781311
2023-11-25T13:15:24.517Z,9.781311
2023-11-25T13:15:26.056Z,9.781311
2023-11-25T13:16:27.999Z,9.781311
2023-11-25T13:17:26.454Z,9.781311
2023-11-25T13:18:26.166Z,9.781311
2023-11-25T13:19:26.038Z,9.781311
2023-11-25T13:20:26.181Z,9.781311
2023-11-25T13:21:26.016Z,9.781311
2023-11-25T13:22:26.098Z,9.781311
2023-11-25T13:23:26.068Z,9.781311
2023-11-25T13:24:25.964Z,9.781311
2023-11-25T13:25:25.986Z,9.781311
2023-11-25T13:26:25.994Z,9.781311
2023-11-25T13:27:26.040Z,9.781311
2023-11-25T13:28:25.948Z,9.781311
2023-11-25T13:29:25.894Z,9.781311
2023-11-25T13:30:25.889Z,9.781311
2023-11-25T13:31:27.789Z,9.781311
2023-11-25T13:32:25.982Z,9.781311
2023-11-25T13:33:25.933Z,9.781311
2023-11-25T13:34:25.842Z,9.781311
2023-11-25T13:35:26.822Z,9.781311
2023-11-25T13:36:25.826Z,9.781311
2023-11-25T13:37:25.868Z,9.781311
2023-11-25T13:38:25.806Z,9.781311
2023-11-25T13:39:25.863Z,9.781311
2023-11-25T13:40:26.641Z,9.781311
2023-11-25T13:41:25.826Z,9.781311
2023-11-25T13:42:25.796Z,9.781311
2023-11-25T13:43:25.839Z,9.781311
2023-11-25T13:44:25.797Z,9.781311
2023-11-25T13:45:25.780Z,9.781311
2023-11-25T13:46:25.823Z,9.781311
2023-11-25T13:47:25.848Z,9.781311
2023-11-25T13:48:25.792Z,9.781311
2023-11-25T13:49:25.740Z,9.781311
2023-11-25T13:50:25.750Z,9.781311
2023-11-25T13:51:25.720Z,9.781311
2023-11-25T13:52:25.785Z,9.781311
2023-11-25T13:53:25.709Z,9.781311
2023-11-25T13:54:25.697Z,9.781311
2023-11-25T13:55:25.727Z,9.781311
2023-11-25T13:56:25.654Z,9.781311
2023-11-25T13:57:25.667Z,9.781311
2023-11-25T13:58:25.646Z,9.781311
2023-11-25T13:59:25.685Z,9.781311
2023-11-25T14:00:27.733Z,9.781311
2023-11-25T14:01:26.658Z,9.781311
2023-11-25T14:02:25.666Z,9.781311
2023-11-25T14:03:25.711Z,9.781311
2023-11-25T14:04:25.647Z,9.781311
2023-11-25T14:05:25.578Z,9.781311
2023-11-25T14:06:25.560Z,9.781311
2023-11-25T14:07:25.608Z,9.781311
2023-11-25T14:08:25.534Z,9.781311
2023-11-25T14:09:25.581Z,9.781311
2023-11-25T14:10:25.525Z,9.781311
2023-11-25T14:11:25.525Z,9.781311
2023-11-25T14:12:25.529Z,9.781311
2023-11-25T14:13:25.527Z,9.781311
2023-11-25T14:14:25.525Z,9.781311
2023-11-25T14:15:25.475Z,9.781311
2023-11-25T14:16:25.478Z,9.781311
2023-11-25T14:17:25.649Z,9.781311
2023-11-25T14:18:25.516Z,9.781311
2023-11-25T14:19:25.496Z,9.781311
2023-11-25T14:20:25.475Z,9.781311
2023-11-25T14:21:25.423Z,9.781311
2023-11-25T14:22:25.414Z,9.781311
2023-11-25T14:23:25.471Z,9.781311
2023-11-25T14:24:25.434Z,9.781311
2023-11-25T14:25:25.403Z,9.781311
2023-11-25T14:26:25.421Z,9.781311
2023-11-25T14:27:25.399Z,9.781311
2023-11-25T14:28:25.372Z,9.781311
2023-11-25T14:29:25.370Z,9.781311
2023-11-25T14:30:25.353Z,9.781311
2023-11-25T14:31:25.347Z,9.781311
2023-11-25T14:32:25.333Z,9.781311
2023-11-25T14:33:25.363Z,9.781311
2023-11-25T14:34:25.313Z,9.781311
2023-11-25T14:35:25.297Z,9.781311
2023-11-25T14:36:25.276Z,9.781311
2023-11-25T14:37:25.277Z,9.781311
2023-11-25T14:38:25.286Z,9.781311
2023-11-25T14:39:25.244Z,9.781311
2023-11-25T14:40:26.402Z,9.781311
2023-11-25T14:41:25.277Z,9.781311
2023-11-25T14:42:25.238Z,9.781311
2023-11-25T14:43:25.280Z,9.781311
2023-11-25T14:44:25.208Z,9.781311
2023-11-25T14:45:25.215Z,9.781311
2023-11-25T14:46:25.214Z,9.781311
2023-11-25T14:47:25.299Z,9.781311
2023-11-25T14:48:25.272Z,9.781311
2023-11-25T14:49:25.140Z,9.781311
2023-11-25T14:50:25.131Z,9.781311
2023-11-25T14:51:25.150Z,9.781311
2023-11-25T14:52:26.138Z,9.781311
2023-11-25T14:53:25.157Z,9.781311
2023-11-25T14:54:25.091Z,9.781311
2023-11-25T14:55:25.091Z,9.781311
2023-11-25T14:56:25.131Z,9.781311
2023-11-25T14:57:25.073Z,9.781311
2023-11-25T14:58:25.075Z,9.781311
2023-11-25T14:59:25.053Z,9.781311
2023-11-25T15:00:25.071Z,9.781311
2023-11-25T15:01:25.029Z,9.781311
2023-11-25T15:02:25.083Z,9.781311
2023-11-25T15:03:25.069Z,9.781311
2023-11-25T15:04:25.026Z,9.781311
2023-11-25T15:05:25.034Z,9.781311
2023-11-25T15:06:24.954Z,9.781311
2023-11-25T15:07:24.970Z,9.781311
2023-11-25T15:08:24.976Z,9.781311
2023-11-25T15:09:24.985Z,9.781311
2023-11-25T15:10:24.980Z,9.781311
2023-11-25T15:11:24.939Z,9.781311
2023-11-25T15:12:24.926Z,9.781311
2023-11-25T15:13:24.894Z,9.781311
2023-11-25T15:14:24.898Z,9.781311
2023-11-25T15:15:24.887Z,9.781311
2023-11-25T15:16:24.884Z,9.781311
2023-11-25T15:17:24.888Z,9.781311
2023-11-25T15:18:24.940Z,9.781311
2023-11-25T15:19:24.865Z,9.781311
2023-11-25T15:20:24.855Z,9.781311
2023-11-25T15:21:24.844Z,9.781311
2023-11-25T15:22:24.845Z,9.781311
2023-11-25T15:23:24.810Z,9.781311
2023-11-25T15:24:24.821Z,9.781311
2023-11-25T15:25:24.784Z,9.781311
2023-11-25T15:26:24.842Z,9.781311
2023-11-25T15:27:24.761Z,9.781311
2023-11-25T15:28:24.756Z,9.781311
2023-11-25T15:29:25.744Z,9.781311
2023-11-25T15:30:24.740Z,9.781311
2023-11-25T15:31:24.749Z,9.781311
2023-11-25T15:32:24.806Z,9.781311
2023-11-25T15:33:24.819Z,9.781311
2023-11-25T15:34:24.698Z,9.781311
2023-11-25T15:35:24.686Z,9.781311
2023-11-25T15:36:24.660Z,9.781311
2023-11-25T15:37:24.674Z,9.781311
2023-11-25T15:38:24.639Z,9.781311
2023-11-25T15:39:24.688Z,9.781311
2023-11-25T15:40:24.620Z,9.781311
2023-11-25T15:41:24.623Z,9.781311
2023-11-25T15:42:25.613Z,9.781311
2023-11-25T15:43:24.591Z,9.781311
2023-11-25T15:44:24.618Z,9.781311
2023-11-25T15:45:24.600Z,9.781311
2023-11-25T15:46:25.578Z,9.781311
2023-11-25T15:47:24.565Z,9.781311
2023-11-25T15:48:24.576Z,9.781311
2023-11-25T15:49:24.560Z,9.781311
2023-11-25T15:50:24.529Z,9.781311
2023-11-25T15:51:24.525Z,9.781311
2023-11-25T15:52:24.509Z,9.781311
2023-11-25T15:53:24.584Z,9.781311
2023-11-25T15:54:24.528Z,9.781311
2023-11-25T15:55:24.523Z,9.781311
2023-11-25T15:56:24.514Z,9.781311
2023-11-25T15:57:24.501Z,9.781311
2023-11-25T15:58:24.472Z,9.781311
2023-11-25T15:59:24.457Z,9.781311
2023-11-25T16:00:24.426Z,9.781311
2023-11-25T16:01:24.459Z,9.781311
2023-11-25T16:02:24.473Z,9.781311
2023-11-25T16:03:24.418Z,9.781311
2023-11-25T16:04:24.428Z,9.781311
2023-11-25T16:05:24.477Z,9.781311
2023-11-25T16:06:24.365Z,9.781311
2023-11-25T16:07:24.406Z,9.781311
2023-11-25T16:08:24.368Z,9.781311
2023-11-25T16:09:24.354Z,9.781311
2023-11-25T16:10:24.350Z,9.781311
2023-11-25T16:11:24.342Z,9.781311
2023-11-25T16:12:26.000Z,9.781311
2023-11-25T16:13:24.294Z,9.781311
2023-11-25T16:14:24.303Z,9.781311
2023-11-25T16:15:24.316Z,9.781311
2023-11-25T16:16:24.355Z,9.781311
2023-11-25T16:17:24.317Z,9.781311
2023-11-25T16:18:26.214Z,9.781311
2023-11-25T16:19:25.283Z,9.781311
2023-11-25T16:20:24.278Z,9.781311
2023-11-25T16:21:24.253Z,9.781311
2023-11-25T16:22:24.224Z,9.781311
2023-11-25T16:23:24.212Z,9.781311
2023-11-25T16:24:24.202Z,9.781311
2023-11-25T16:25:24.202Z,9.781311
2023-11-25T16:26:24.209Z,9.781311
2023-11-25T16:27:25.221Z,9.781311
2023-11-25T16:28:24.164Z,9.781311
2023-11-25T16:29:24.182Z,9.781311
2023-11-25T16:30:24.135Z,9.781311
2023-11-25T16:31:24.181Z,9.781311
2023-11-25T16:32:24.231Z,9.781311
2023-11-25T16:33:24.197Z,9.781311
2023-11-25T16:34:24.118Z,9.781311
2023-11-25T16:35:24.121Z,9.781311
2023-11-25T16:36:24.076Z,9.781311
2023-11-25T16:37:24.075Z,9.781311
2023-11-25T16:38:24.113Z,9.781311
2023-11-25T16:39:24.164Z,9.781311
2023-11-25T16:40:24.102Z,9.781311
2023-11-25T16:41:24.031Z,9.781311
2023-11-25T16:42:24.020Z,9.781311
2023-11-25T16:43:24.005Z,9.781311
2023-11-25T16:44:24.068Z,9.781311
2023-11-25T16:45:24.044Z,9.781311
2023-11-25T16:46:24.045Z,9.781311
2023-11-25T16:47:24.051Z,9.781311
2023-11-25T16:48:32.304Z,9.781311
2023-11-25T16:49:31.913Z,9.781311
2023-11-25T16:50:25.076Z,9.781311
2023-11-25T16:51:23.936Z,9.781311
2023-11-25T16:52:23.912Z,9.781311
2023-11-25T16:53:23.906Z,9.781311
2023-11-25T16:54:23.949Z,9.781311
2023-11-25T16:55:23.900Z,9.781311
2023-11-25T16:56:23.936Z,9.781311
2023-11-25T16:57:23.901Z,9.781311
2023-11-25T16:58:23.918Z,9.781311
2023-11-25T16:59:23.892Z,9.781311
2023-11-25T17:00:23.839Z,9.781311
2023-11-25T17:01:23.857Z,9.781311
2023-11-25T17:02:23.987Z,9.781311
2023-11-25T17:03:24.029Z,9.781311
2023-11-25T17:04:23.948Z,9.781311
2023-11-25T17:05:23.889Z,9.781311
2023-11-25T17:06:23.796Z,9.781311
2023-11-25T17:07:23.794Z,9.781311
2023-11-25T17:08:23.782Z,9.781311
2023-11-25T17:09:23.791Z,9.781311
2023-11-25T17:10:23.742Z,9.781311
2023-11-25T17:11:25.867Z,9.781311
2023-11-25T17:12:24.700Z,9.781311
2023-11-25T17:13:23.710Z,9.781311
2023-11-25T17:14:23.703Z,9.781311
2023-11-25T17:15:23.731Z,9.781311
2023-11-25T17:16:23.713Z,9.781311
2023-11-25T17:17:23.729Z,9.781311
2023-11-25T17:18:23.676Z,9.781311
2023-11-25T17:19:23.658Z,9.781311
2023-11-25T17:20:23.650Z,9.781311
2023-11-25T17:21:23.644Z,9.781311
2023-11-25T17:22:24.635Z,9.781311
2023-11-25T17:23:23.610Z,9.781311
2023-11-25T17:24:23.631Z,9.781311
2023-11-25T17:25:23.613Z,9.781311
2023-11-25T17:26:23.591Z,9.781311
2023-11-25T17:27:23.582Z,9.781311
2023-11-25T17:28:23.597Z,9.781311
2023-11-25T17:29:23.599Z,9.781311
2023-11-25T17:30:23.561Z,9.781311
2023-11-25T17:31:23.667Z,9.781311
2023-11-25T17:32:23.541Z,9.781311
2023-11-25T17:33:23.532Z,9.781311
2023-11-25T17:34:23.597Z,9.781311
2023-11-25T17:35:23.503Z,9.781311
2023-11-25T17:36:23.511Z,9.781311
2023-11-25T17:37:23.509Z,9.781311
2023-11-25T17:38:23.493Z,9.781311
2023-11-25T17:39:23.439Z,9.781311
2023-11-25T17:40:23.422Z,9.781311
2023-11-25T17:41:23.451Z,9.781311
2023-11-25T17:42:23.457Z,9.781311
2023-11-25T17:43:23.517Z,9.781311
2023-11-25T17:44:23.481Z,9.781311
2023-11-25T17:45:23.457Z,9.781311
2023-11-25T17:46:23.420Z,9.781311
2023-11-25T17:47:23.377Z,9.781311
2023-11-25T17:48:23.364Z,9.781311
2023-11-25T17:49:23.348Z,9.781311
2023-11-25T17:50:23.338Z,9.781311
2023-11-25T17:51:23.336Z,9.781311
2023-11-25T17:52:23.323Z,9.781311
2023-11-25T17:53:23.371Z,9.781311
2023-11-25T17:54:23.292Z,9.781311
2023-11-25T17:55:23.322Z,9.781311
2023-11-25T17:56:23.328Z,9.781311
2023-11-25T17:57:23.271Z,9.781311
2023-11-25T17:58:23.336Z,9.781311
2023-11-25T17:59:23.280Z,9.781311
2023-11-25T18:00:23.284Z,9.781311
2023-11-25T18:01:23.320Z,9.781311
2023-11-25T18:02:23.337Z,9.781311
2023-11-25T18:03:23.269Z,9.781311
2023-11-25T18:04:23.278Z,9.781311
2023-11-25T18:05:23.208Z,9.781311
2023-11-25T18:06:23.181Z,9.781311
2023-11-25T18:07:23.176Z,9.781311
2023-11-25T18:08:23.193Z,9.781311
2023-11-25T18:09:23.191Z,9.781311
2023-11-25T18:10:23.145Z,9.781311
2023-11-25T18:11:23.141Z,9.781311
2023-11-25T18:12:24.139Z,9.781311
2023-11-25T18:13:23.173Z,9.781311
2023-11-25T18:14:23.216Z,9.781311
2023-11-25T18:15:23.106Z,9.781311
2023-11-25T18:16:23.081Z,9.781311
2023-11-25T18:17:23.189Z,9.781311
2023-11-25T18:18:23.144Z,9.781311
2023-11-25T18:19:23.050Z,9.781311
2023-11-25T18:20:23.051Z,9.781311
2023-11-25T18:21:23.035Z,9.781311
2023-11-25T18:22:23.003Z,9.781311
2023-11-25T18:23:23.023Z,9.781311
2023-11-25T18:24:23.008Z,9.781311
2023-11-25T18:25:23.222Z,9.781311
2023-11-25T18:26:23.022Z,9.781311
2023-11-25T18:27:23.056Z,9.781311
2023-11-25T18:28:23.039Z,9.781311
2023-11-25T18:29:23.583Z,9.781311
2023-11-25T18:30:23.064Z,9.781311
2023-11-25T18:31:22.941Z,9.781311
2023-11-25T18:32:22.915Z,9.781311
2023-11-25T18:33:22.989Z,9.781311
2023-11-25T18:34:22.957Z,9.781311
2023-11-25T18:35:22.933Z,9.781311
2023-11-25T18:36:22.893Z,9.781311
2023-11-25T18:37:22.936Z,9.781311
2023-11-25T18:38:22.882Z,9.781311
2023-11-25T18:39:23.736Z,9.781311
2023-11-25T18:40:22.858Z,9.781311
2023-11-25T18:41:22.825Z,9.781311
2023-11-25T18:42:22.856Z,9.781311
2023-11-25T18:43:22.860Z,9.781311
2023-11-25T18:44:22.814Z,9.781311
2023-11-25T18:45:22.789Z,9.781311
2023-11-25T18:46:22.824Z,9.781311
2023-11-25T18:47:22.831Z,9.781311
2023-11-25T18:48:22.796Z,9.781311
2023-11-25T18:49:22.760Z,9.781311
2023-11-25T18:50:22.751Z,9.781311
2023-11-25T18:51:22.735Z,9.781311
2023-11-25T18:52:22.726Z,9.781311
2023-11-25T18:53:22.703Z,9.781311
2023-11-25T18:54:22.703Z,9.781311
2023-11-25T18:55:22.679Z,9.781311
2023-11-25T18:56:22.688Z,9.781311
2023-11-25T18:57:22.684Z,9.781311
2023-11-25T18:58:22.643Z,9.781311
2023-11-25T18:59:22.641Z,9.781311
2023-11-25T19:00:23.677Z,9.781311
2023-11-25T19:01:22.674Z,9.781311
2023-11-25T19:02:22.692Z,9.781311
2023-11-25T19:03:22.614Z,9.781311
2023-11-25T19:04:23.975Z,9.781311
2023-11-25T19:05:22.596Z,9.781311
2023-11-25T19:06:22.566Z,9.781311
2023-11-25T19:07:22.536Z,9.781311
2023-11-25T19:08:22.570Z,9.781311
2023-11-25T19:09:22.556Z,9.781311
2023-11-25T19:10:22.575Z,9.781311
2023-11-25T19:11:22.535Z,9.781311
2023-11-25T19:12:22.525Z,9.781311
2023-11-25T19:13:22.581Z,9.781311
2023-11-25T19:14:22.562Z,9.781311
2023-11-25T19:15:22.502Z,9.781311
2023-11-25T19:16:22.547Z,9.781311
2023-11-25T19:17:22.575Z,9.781311
2023-11-25T19:18:22.554Z,9.781311
2023-11-25T19:19:22.494Z,9.781311
2023-11-25T19:20:22.435Z,9.781311
2023-11-25T19:21:22.477Z,9.781311
2023-11-25T19:22:22.407Z,9.781311
2023-11-25T19:23:22.470Z,9.781311
2023-11-25T19:24:22.455Z,9.781311
2023-11-25T19:25:22.493Z,9.781311
2023-11-25T19:26:22.425Z,9.781311
2023-11-25T19:27:22.428Z,9.781311
2023-11-25T19:28:25.214Z,9.781311
2023-11-25T19:29:23.452Z,9.781311
2023-11-25T19:30:22.315Z,9.781311
2023-11-25T19:31:22.364Z,9.781311
2023-11-25T19:32:22.460Z,9.781311
2023-11-25T19:33:22.332Z,9.781311
2023-11-25T19:34:22.319Z,9.781311
2023-11-25T19:35:22.326Z,9.781311
2023-11-25T19:36:22.347Z,9.781311
2023-11-25T19:37:22.301Z,9.781311
2023-11-25T19:38:22.342Z,9.781311
2023-11-25T19:39:22.357Z,9.781311
2023-11-25T19:40:22.289Z,9.781311
2023-11-25T19:41:22.296Z,9.781311
2023-11-25T19:42:22.269Z,9.781311
2023-11-25T19:43:22.215Z,9.781311
2023-11-25T19:44:22.214Z,9.781311
2023-11-25T19:45:22.148Z,9.781311
2023-11-25T19:46:22.236Z,9.781311
2023-11-25T19:47:22.279Z,9.781311
2023-11-25T19:48:22.232Z,9.781311
2023-11-25T19:49:22.216Z,9.781311
2023-11-25T19:50:22.145Z,9.781311
2023-11-25T19:51:22.121Z,9.781311
2023-11-25T19:52:22.160Z,9.781311
2023-11-25T19:53:22.176Z,9.781311
2023-11-25T19:54:23.122Z,9.781311
2023-11-25T19:55:22.119Z,9.781311
2023-11-25T19:56:22.137Z,9.781311
2023-11-25T19:57:22.083Z,9.781311
2023-11-25T19:58:22.028Z,9.781311
2023-11-25T19:59:22.117Z,9.781311
2023-11-25T20:00:22.056Z,9.781311
2023-11-25T20:01:22.012Z,9.781311
2023-11-25T20:02:22.199Z,9.781311
2023-11-25T20:03:22.102Z,9.781311
2023-11-25T20:04:22.021Z,9.781311
2023-11-25T20:05:22.018Z,9.781311
2023-11-25T20:06:21.962Z,9.781311
2023-11-25T20:07:21.964Z,9.781311
2023-11-25T20:08:21.959Z,9.781311
2023-11-25T20:09:21.974Z,9.781311
2023-11-25T20:10:21.931Z,9.781311
2023-11-25T20:11:21.926Z,9.781311
2023-11-25T20:12:21.915Z,9.781311
2023-11-25T20:13:21.896Z,9.781311
2023-11-25T20:14:21.879Z,9.781311